Time;durP1;ratioP1;P1;durP2;ratioP2;P2;SDS_P1;SDS_P2;PMS_P1;PMS_P2;Temp;Humidity;BMP_temperature;BMP_pressure;BME280_temperature;BME280_humidity;BME280_pressure;Samples;Min_cycle;Max_cycle;Signal;HPM_P1;HPM_P2
2024/01/12 00:00:24;;;;;;;23.05;9.10;;;;;;;-2.97;100.00;103216.78;5045540;28;20139;-79
2024/01/12 00:02:49;;;;;;;21.88;10.00;;;;;;;-2.99;100.00;103209.97;5041845;28;20033;-75
2024/01/12 00:05:15;;;;;;;27.90;10.77;;;;;;;-3.03;100.00;103210.22;5042636;28;20098;-76
2024/01/12 00:07:41;;;;;;;25.77;10.02;;;;;;;-3.04;100.00;103205.13;5025406;28;20045;-77
2024/01/12 00:10:08;;;;;;;22.13;9.50;;;;;;;-3.09;100.00;103208.09;5041587;28;20044;-73
2024/01/12 00:12:34;;;;;;;20.80;9.57;;;;;;;-3.11;100.00;103207.38;5035649;28;20032;-77
2024/01/12 00:15:00;;;;;;;22.33;9.38;;;;;;;-3.15;100.00;103205.09;5043034;28;20032;-76
2024/01/12 00:17:26;;;;;;;19.95;8.95;;;;;;;-3.18;100.00;103203.56;5043408;28;20037;-75
2024/01/12 00:19:52;;;;;;;18.65;8.38;;;;;;;-3.21;100.00;103202.97;5031140;22;20076;-74
2024/01/12 00:22:17;;;;;;;15.80;8.13;;;;;;;-3.24;100.00;103204.03;5000925;28;20096;-74
2024/01/12 00:24:43;;;;;;;16.40;7.97;;;;;;;-3.28;100.00;103202.59;4996248;28;20033;-74
2024/01/12 00:27:09;;;;;;;16.52;8.45;;;;;;;-3.32;100.00;103211.63;4985469;28;20453;-73
2024/01/12 00:29:35;;;;;;;18.63;7.85;;;;;;;-3.36;100.00;103211.03;4983964;28;20066;-74
2024/01/12 00:32:00;;;;;;;18.33;8.23;;;;;;;-3.36;100.00;103218.06;4987757;28;20491;-74
2024/01/12 00:34:26;;;;;;;19.80;8.55;;;;;;;-3.40;100.00;103208.78;4984225;28;20073;-74
2024/01/12 00:36:53;;;;;;;17.58;8.75;;;;;;;-3.42;100.00;103201.03;4976053;28;20490;-73
2024/01/12 00:39:19;;;;;;;;;;;;;;;-3.39;100.00;103210.44;4980455;28;20541;-74
2024/01/12 00:41:45;;;;;;;21.10;8.85;;;;;;;-3.38;100.00;103206.88;5003587;28;19913;-74
2024/01/12 00:44:10;;;;;;;23.98;9.55;;;;;;;-3.37;100.00;103213.78;5003048;28;20034;-74
2024/01/12 00:46:36;;;;;;;21.58;9.63;;;;;;;-3.37;100.00;103204.16;4986238;28;20041;-73
2024/01/12 00:49:02;;;;;;;35.05;11.40;;;;;;;-3.33;100.00;103205.56;4969635;28;20065;-73
2024/01/12 00:51:27;;;;;;;28.13;10.85;;;;;;;-3.31;100.00;103202.84;4979739;28;20045;-73
2024/01/12 00:53:53;;;;;;;37.17;12.57;;;;;;;-3.28;100.00;103201.75;4985128;28;20034;-73
2024/01/12 00:56:19;;;;;;;27.40;10.45;;;;;;;-3.26;100.00;103211.16;4972481;28;20757;-74
2024/01/12 00:58:46;;;;;;;;;;;;;;;-3.23;100.00;103203.09;4993814;28;20077;-73
2024/01/12 01:01:11;;;;;;;27.27;10.20;;;;;;;-3.23;100.00;103204.88;4989876;28;19991;-73
2024/01/12 01:03:37;;;;;;;24.50;9.20;;;;;;;-3.21;100.00;103201.16;4998202;28;20045;-73
2024/01/12 01:06:04;;;;;;;31.00;11.07;;;;;;;-3.20;100.00;103204.63;4972300;28;20096;-74
2024/01/12 01:08:29;;;;;;;27.17;10.00;;;;;;;-3.20;100.00;103205.44;4990585;28;20530;-74
2024/01/12 01:10:55;;;;;;;24.67;8.88;;;;;;;-3.18;100.00;103202.72;4986656;28;20026;-74
2024/01/12 01:13:20;;;;;;;30.58;9.32;;;;;;;-3.18;100.00;103200.13;4992885;28;20037;-74
2024/01/12 01:15:47;;;;;;;31.92;10.38;;;;;;;-3.18;100.00;103203.56;5004315;28;20906;-74
2024/01/12 01:18:13;;;;;;;28.85;10.95;;;;;;;-3.18;100.00;103208.81;4984452;28;20035;-74
2024/01/12 01:20:39;;;;;;;43.58;11.30;;;;;;;-3.17;100.00;103213.09;4989354;28;20128;-73
2024/01/12 01:23:04;;;;;;;28.95;11.13;;;;;;;-3.13;100.00;103216.28;4973456;28;20245;-74
2024/01/12 01:25:30;;;;;;;26.70;11.07;;;;;;;-3.13;100.00;103217.13;4973539;28;20072;-74
2024/01/12 01:27:56;;;;;;;29.13;11.52;;;;;;;-3.12;100.00;103220.56;5007766;28;20133;-74
2024/01/12 01:30:22;;;;;;;28.70;12.20;;;;;;;-3.13;100.00;103211.88;5002816;28;20958;-74
2024/01/12 01:32:48;;;;;;;33.83;12.25;;;;;;;-3.13;100.00;103211.06;4994869;28;20033;-74
2024/01/12 01:35:14;;;;;;;35.95;12.18;;;;;;;-3.14;100.00;103204.97;4977890;28;20127;-73
2024/01/12 01:37:41;;;;;;;31.23;11.38;;;;;;;-3.16;100.00;103212.13;5006364;28;20788;-74
2024/01/12 01:40:07;;;;;;;36.47;12.73;;;;;;;-3.15;100.00;103205.94;4988727;28;20109;-74
2024/01/12 01:42:34;;;;;;;24.88;10.45;;;;;;;-3.15;100.00;103208.56;4968045;28;20069;-74
2024/01/12 01:45:02;;;;;;;28.85;11.27;;;;;;;-3.15;100.00;103211.19;5008381;28;20031;-73
2024/01/12 01:47:29;;;;;;;23.40;10.80;;;;;;;-3.15;100.00;103205.09;5004755;28;20533;-74
2024/01/12 01:49:56;;;;;;;26.77;10.40;;;;;;;-3.15;100.00;103199.84;4954517;28;20045;-74
2024/01/12 01:52:25;;;;;;;23.05;9.60;;;;;;;-3.14;100.00;103194.50;5003120;28;20891;-75
2024/01/12 01:54:56;;;;;;;30.80;12.07;;;;;;;-3.15;100.00;103192.81;4999983;28;20034;-74
2024/01/12 01:57:24;;;;;;;28.02;10.48;;;;;;;-3.17;100.00;103202.59;4998929;28;20065;-74
2024/01/12 01:59:50;;;;;;;32.25;12.02;;;;;;;-3.20;100.00;103197.59;5003836;28;20038;-74
2024/01/12 02:02:16;;;;;;;26.90;11.13;;;;;;;-3.22;100.00;103194.25;4986803;28;20124;-74
2024/01/12 02:04:41;;;;;;;24.60;9.88;;;;;;;-3.24;100.00;103193.56;4989200;28;20508;-73
2024/01/12 02:07:08;;;;;;;28.30;11.00;;;;;;;-3.25;100.00;103193.66;5003123;28;20041;-73
2024/01/12 02:09:34;;;;;;;31.15;11.57;;;;;;;-3.26;100.00;103190.19;4984924;28;20045;-73
2024/01/12 02:11:59;;;;;;;24.77;10.15;;;;;;;-3.28;100.00;103186.88;4990170;28;20041;-74
2024/01/12 02:14:25;;;;;;;21.58;9.60;;;;;;;-3.32;100.00;103170.56;5007628;28;20036;-74
2024/01/12 02:16:54;;;;;;;22.15;10.73;;;;;;;-3.35;100.00;103169.94;5003770;28;20038;-73
2024/01/12 02:19:19;;;;;;;29.10;10.10;;;;;;;-3.34;100.00;103172.44;4970140;28;20053;-73
2024/01/12 02:21:45;;;;;;;25.60;10.43;;;;;;;-3.36;100.00;103174.38;5006631;28;20076;-74
2024/01/12 02:24:11;;;;;;;23.40;9.95;;;;;;;-3.37;100.00;103172.69;4977485;28;20034;-74
2024/01/12 02:26:36;;;;;;;26.45;9.98;;;;;;;-3.38;100.00;103170.19;4974457;28;20088;-74
2024/01/12 02:29:03;;;;;;;26.17;10.50;;;;;;;-3.42;100.00;103169.59;5005541;28;20112;-74
2024/01/12 02:31:30;;;;;;;32.92;11.00;;;;;;;-3.44;100.00;103170.69;4993249;28;20096;-74
2024/01/12 02:33:55;;;;;;;25.70;9.55;;;;;;;-3.42;100.00;103171.38;4987531;28;20037;-74
2024/01/12 02:36:26;;;;;;;24.85;10.73;;;;;;;-3.43;100.00;103170.56;4986006;28;20042;-74
2024/01/12 02:38:52;;;;;;;27.88;9.20;;;;;;;-3.44;100.00;103168.06;4972459;28;20594;-74
2024/01/12 02:41:17;;;;;;;25.90;10.25;;;;;;;-3.43;100.00;103165.31;5004242;28;20037;-73
2024/01/12 02:43:43;;;;;;;31.08;10.70;;;;;;;-3.41;100.00;103170.44;5002803;28;20115;-74
2024/01/12 02:46:09;;;;;;;23.85;10.50;;;;;;;-3.42;100.00;103163.53;4972843;28;20052;-74
2024/01/12 02:48:35;;;;;;;24.00;10.75;;;;;;;-3.41;100.00;103159.94;4998976;28;20034;-73
2024/01/12 02:51:00;;;;;;;22.08;9.35;;;;;;;-3.38;100.00;103168.41;4978218;28;20034;-73
2024/01/12 02:53:26;;;;;;;26.10;9.93;;;;;;;-3.39;100.00;103168.50;4997170;28;20788;-74
2024/01/12 02:55:52;;;;;;;23.30;9.40;;;;;;;-3.37;100.00;103166.63;4995941;28;20589;-74
2024/01/12 02:58:18;;;;;;;24.35;10.10;;;;;;;-3.35;100.00;103169.94;4985975;28;20104;-73
2024/01/12 03:00:44;;;;;;;24.05;9.45;;;;;;;-3.33;100.00;103162.78;4995863;28;20126;-74
2024/01/12 03:03:09;;;;;;;28.88;11.35;;;;;;;-3.34;100.00;103166.38;5000937;28;20030;-73
2024/01/12 03:05:35;;;;;;;30.40;12.25;;;;;;;-3.31;100.00;103169.59;4990413;28;20045;-74
2024/01/12 03:08:01;;;;;;;30.73;12.25;;;;;;;-3.30;100.00;103160.78;4982817;28;20115;-74
2024/01/12 03:10:26;;;;;;;82.60;14.65;;;;;;;-3.29;100.00;103153.75;4990530;28;20099;-74
2024/01/12 03:12:52;;;;;;;84.82;15.55;;;;;;;-3.28;100.00;103150.19;5003490;28;20038;-74
2024/01/12 03:15:18;;;;;;;39.00;12.95;;;;;;;-3.26;100.00;103148.25;4976428;28;20038;-73
2024/01/12 03:17:44;;;;;;;;;;;;;;;-3.27;100.00;103146.59;4987870;28;20092;-74
2024/01/12 03:20:10;;;;;;;42.63;12.85;;;;;;;-3.24;100.00;103141.13;5001699;28;19927;-74
2024/01/12 03:22:36;;;;;;;33.10;13.48;;;;;;;-3.23;100.00;103141.97;5004815;28;20388;-74
2024/01/12 03:25:02;;;;;;;80.18;15.43;;;;;;;-3.23;100.00;103140.19;4988515;28;20141;-73
2024/01/12 03:27:27;;;;;;;40.03;15.48;;;;;;;-3.21;100.00;103138.25;4989814;28;20033;-73
2024/01/12 03:29:53;;;;;;;101.63;15.80;;;;;;;-3.23;100.00;103132.31;4971383;28;20041;-74
2024/01/12 03:32:22;;;;;;;58.67;15.73;;;;;;;-3.26;100.00;103127.28;4989187;28;20033;-73
2024/01/12 03:34:47;;;;;;;33.80;13.02;;;;;;;-3.29;100.00;103119.69;4982356;28;20085;-73
2024/01/12 03:37:13;;;;;;;37.47;13.20;;;;;;;-3.28;100.00;103113.50;5008760;28;20045;-74
2024/01/12 03:39:39;;;;;;;75.55;13.48;;;;;;;-3.28;100.00;103103.00;5010438;28;20041;-74
2024/01/12 03:42:04;;;;;;;64.78;13.45;;;;;;;-3.31;100.00;103098.03;5003850;28;20118;-73
2024/01/12 03:44:30;;;;;;;30.73;11.77;;;;;;;-3.32;100.00;103097.19;5001543;28;20095;-74
2024/01/12 03:46:56;;;;;;;59.45;12.55;;;;;;;-3.30;100.00;103097.06;4992633;28;20552;-74
2024/01/12 03:49:22;;;;;;;58.65;12.80;;;;;;;-3.30;100.00;103094.44;4998846;28;21068;-74
2024/01/12 03:51:53;;;;;;;90.63;13.45;;;;;;;-3.31;100.00;103098.03;4999214;28;20044;-74
2024/01/12 03:54:20;;;;;;;55.80;12.50;;;;;;;-3.35;100.00;103097.41;5007730;28;20084;-74
2024/01/12 03:56:46;;;;;;;41.55;11.52;;;;;;;-3.34;100.00;103096.47;4992223;28;20033;-74
2024/01/12 03:59:12;;;;;;;44.80;12.27;;;;;;;-3.37;100.00;103099.34;5006537;28;20041;-74
2024/01/12 04:01:45;;;;;;;76.55;11.35;;;;;;;-3.37;100.00;103098.50;5009004;28;20041;-74
2024/01/12 04:04:11;;;;;;;103.07;12.70;;;;;;;-3.43;100.00;103083.25;4992108;28;20067;-74
2024/01/12 04:06:37;;;;;;;30.00;10.82;;;;;;;-3.42;100.00;103084.91;4992966;28;20040;-74
2024/01/12 04:09:03;;;;;;;28.10;11.30;;;;;;;-3.41;100.00;103076.94;4984601;28;20207;-74
2024/01/12 04:11:28;;;;;;;53.75;13.23;;;;;;;-3.43;100.00;103067.53;5005191;28;20557;-74
2024/01/12 04:13:54;;;;;;;46.72;12.57;;;;;;;-3.46;100.00;103075.63;4986694;28;20034;-74
2024/01/12 04:16:20;;;;;;;26.67;12.25;;;;;;;-3.46;100.00;103067.75;4988849;28;20042;-74
2024/01/12 04:18:46;;;;;;;26.17;10.90;;;;;;;-3.46;100.00;103068.59;5003859;28;20633;-74
2024/01/12 04:21:12;;;;;;;28.63;12.32;;;;;;;-3.45;100.00;103074.69;5005721;28;20033;-74
2024/01/12 04:23:39;;;;;;;27.25;11.52;;;;;;;-3.46;100.00;103073.00;4982383;28;20053;-74
2024/01/12 04:26:08;;;;;;;27.88;11.43;;;;;;;-3.45;100.00;103066.84;4988738;28;20037;-74
2024/01/12 04:28:34;;;;;;;25.17;10.40;;;;;;;-3.46;100.00;103067.75;4971515;28;20162;-74
2024/01/12 04:31:04;;;;;;;29.25;11.30;;;;;;;-3.45;100.00;103064.22;4973711;28;20049;-73
2024/01/12 04:33:31;;;;;;;28.42;11.55;;;;;;;-3.44;100.00;103065.88;5004157;28;20041;-72
2024/01/12 04:35:57;;;;;;;28.02;10.57;;;;;;;-3.42;100.00;103056.09;4972841;28;20038;-72
2024/01/12 04:38:25;;;;;;;24.13;11.30;;;;;;;-3.43;100.00;103060.50;5005618;28;20030;-75
2024/01/12 04:40:51;;;;;;;21.77;9.98;;;;;;;-3.41;100.00;103060.38;5011190;28;20104;-73
2024/01/12 04:43:17;;;;;;;29.40;11.27;;;;;;;-3.39;100.00;103051.44;4994511;28;20048;-72
2024/01/12 04:45:43;;;;;;;24.85;10.77;;;;;;;-3.38;100.00;103060.16;4991349;28;20026;-72
2024/01/12 04:48:09;;;;;;;34.25;12.50;;;;;;;-3.38;100.00;103054.91;5000801;28;20048;-73
2024/01/12 04:50:34;;;;;;;25.63;11.65;;;;;;;-3.37;100.00;103059.19;4990676;28;20120;-73
2024/01/12 04:53:00;;;;;;;29.85;12.40;;;;;;;-3.36;100.00;103055.63;4996470;28;20037;-75
2024/01/12 04:55:26;;;;;;;33.55;12.13;;;;;;;-3.35;100.00;103050.25;4974312;28;20095;-73
2024/01/12 04:57:51;;;;;;;24.50;10.55;;;;;;;-3.37;100.00;103046.94;5008219;28;20033;-73
2024/01/12 05:00:19;;;;;;;20.80;9.98;;;;;;;-3.36;100.00;103053.00;4988374;28;20037;-74
2024/01/12 05:02:44;;;;;;;20.15;8.90;;;;;;;-3.33;100.00;103039.63;5004037;28;20033;-71
2024/01/12 05:05:10;;;;;;;20.80;9.02;;;;;;;-3.33;100.00;103047.50;4977959;28;20042;-74
2024/01/12 05:07:36;;;;;;;19.77;8.48;;;;;;;-3.35;100.00;103041.56;5006598;28;20152;-74
2024/01/12 05:10:03;;;;;;;20.73;9.18;;;;;;;-3.35;100.00;103041.56;4990052;28;20037;-75
2024/01/12 05:12:29;;;;;;;21.70;10.32;;;;;;;-3.41;100.00;103048.13;5005243;28;20042;-75
2024/01/12 05:14:54;;;;;;;17.60;8.10;;;;;;;-3.40;100.00;103046.31;4974732;28;20560;-75
2024/01/12 05:17:21;;;;;;;16.70;8.13;;;;;;;-3.44;100.00;103045.75;4985062;28;20038;-75
2024/01/12 05:19:47;;;;;;;17.02;8.05;;;;;;;-3.46;100.00;103042.41;4972977;28;20026;-75
2024/01/12 05:22:13;;;;;;;17.98;7.88;;;;;;;-3.47;100.00;103040.72;4986488;28;20458;-75
2024/01/12 05:24:39;;;;;;;19.85;8.75;;;;;;;-3.49;100.00;103041.81;4992947;28;20453;-75
2024/01/12 05:27:05;;;;;;;23.77;9.65;;;;;;;-3.50;100.00;103035.75;5014364;28;20029;-74
2024/01/12 05:29:30;;;;;;;20.23;8.68;;;;;;;-3.48;100.00;103039.06;4995165;28;20415;-74
2024/01/12 05:31:56;;;;;;;17.80;8.07;;;;;;;-3.47;100.00;103048.59;5005345;28;20030;-73
2024/01/12 05:34:22;;;;;;;19.38;9.05;;;;;;;-3.50;100.00;103038.38;5004196;28;20637;-74
2024/01/12 05:36:48;;;;;;;18.13;8.68;;;;;;;-3.49;100.00;103036.59;5007036;28;20038;-74
2024/01/12 05:39:15;;;;;;;19.52;8.88;;;;;;;-3.49;100.00;103041.81;4981425;28;20115;-74
2024/01/12 05:41:41;;;;;;;17.35;8.70;;;;;;;-3.48;100.00;103033.00;5006469;28;20136;-74
2024/01/12 05:44:06;;;;;;;16.83;8.18;;;;;;;-3.50;100.00;103032.31;4977373;28;20046;-74
2024/01/12 05:46:32;;;;;;;19.92;8.27;;;;;;;-3.50;100.00;103027.06;5009925;28;20364;-74
2024/01/12 05:49:00;;;;;;;16.15;7.70;;;;;;;-3.51;100.00;103038.50;4993950;28;20145;-73
2024/01/12 05:51:26;;;;;;;18.65;9.13;;;;;;;-3.52;100.00;103040.28;5012514;28;20504;-73
2024/01/12 05:53:52;;;;;;;19.33;8.93;;;;;;;-3.50;100.00;103046.22;4993990;28;20037;-73
2024/01/12 05:56:17;;;;;;;19.42;8.60;;;;;;;-3.50;100.00;103046.22;4986410;28;20030;-73
2024/01/12 05:58:43;;;;;;;26.73;8.95;;;;;;;-3.50;100.00;103053.25;5012173;28;20026;-73
2024/01/12 06:01:09;;;;;;;23.45;9.25;;;;;;;-3.51;100.00;103049.81;4990816;28;20033;-73
2024/01/12 06:03:34;;;;;;;28.85;10.82;;;;;;;-3.51;100.00;103041.94;5005233;28;20108;-74
2024/01/12 06:06:01;;;;;;;20.13;9.57;;;;;;;-3.54;100.00;103052.66;5010201;28;20037;-73
2024/01/12 06:08:26;;;;;;;19.25;9.15;;;;;;;-3.53;100.00;103058.72;5002743;28;20069;-73
2024/01/12 06:10:52;;;;;;;16.85;9.32;;;;;;;-3.59;100.00;103053.03;4990659;28;20029;-74
2024/01/12 06:13:18;;;;;;;16.33;8.57;;;;;;;-3.62;100.00;103058.50;5000088;28;20034;-72
2024/01/12 06:15:43;;;;;;;13.57;7.32;;;;;;;-3.66;100.00;103064.94;4987846;28;20048;-73
2024/01/12 06:18:09;;;;;;;24.98;8.65;;;;;;;-3.73;100.00;103063.72;5007319;28;20042;-73
2024/01/12 06:20:34;;;;;;;16.13;8.07;;;;;;;-3.74;100.00;103067.28;4986196;23;20090;-73
2024/01/12 06:23:00;;;;;;;17.13;8.35;;;;;;;-3.72;100.00;103057.56;4976353;28;20077;-75
2024/01/12 06:25:27;;;;;;;13.55;7.53;;;;;;;-3.71;100.00;103059.22;4958779;28;20447;-75
2024/01/12 06:27:53;;;;;;;17.20;8.25;;;;;;;-3.70;100.00;103055.63;4985340;28;20030;-74
2024/01/12 06:30:19;;;;;;;15.30;8.32;;;;;;;-3.71;100.00;103058.38;4989010;28;20061;-76
2024/01/12 06:32:44;;;;;;;15.18;7.60;;;;;;;-3.70;100.00;103065.28;4967465;28;20508;-75
2024/01/12 06:35:11;;;;;;;17.08;9.13;;;;;;;-3.77;100.00;103070.16;4978069;28;20108;-74
2024/01/12 06:37:38;;;;;;;19.85;9.65;;;;;;;-3.77;100.00;103066.72;4984328;28;20043;-73
2024/01/12 06:40:04;;;;;;;18.33;8.90;;;;;;;-3.81;100.00;103060.88;4946266;28;20125;-74
2024/01/12 06:42:31;;;;;;;21.17;9.63;;;;;;;-3.82;100.00;103055.75;4983989;28;20041;-74
2024/01/12 06:44:57;;;;;;;21.40;9.55;;;;;;;-3.82;100.00;103059.22;4985149;28;20037;-74
2024/01/12 06:47:23;;;;;;;18.67;9.27;;;;;;;-3.81;100.00;103060.88;4988074;28;20408;-74
2024/01/12 06:49:48;;;;;;;18.45;8.88;;;;;;;-3.83;100.00;103065.41;4984509;28;20412;-74
2024/01/12 06:52:14;;;;;;;16.40;8.15;;;;;;;-3.82;100.00;103061.81;4987089;28;20415;-75
2024/01/12 06:54:44;;;;;;;22.25;9.10;;;;;;;-3.80;100.00;103059.09;4982685;28;20049;-74
2024/01/12 06:57:10;;;;;;;18.65;8.63;;;;;;;-3.77;100.00;103064.09;4983270;28;20045;-74
2024/01/12 06:59:36;;;;;;;18.33;9.10;;;;;;;-3.77;100.00;103062.31;4984267;28;20073;-74
2024/01/12 07:02:02;;;;;;;18.10;8.98;;;;;;;-3.75;100.00;103062.19;4980621;28;20042;-75
2024/01/12 07:04:28;;;;;;;17.88;8.60;;;;;;;-3.74;100.00;103048.97;4999718;28;20039;-73
2024/01/12 07:06:53;;;;;;;19.08;8.70;;;;;;;-3.75;100.00;103055.16;4965330;28;20407;-73
2024/01/12 07:09:20;;;;;;;20.10;9.10;;;;;;;-3.68;100.00;103061.59;4962722;28;20043;-75
2024/01/12 07:11:46;;;;;;;17.88;8.13;;;;;;;-3.66;100.00;103070.19;4969288;28;20957;-73
2024/01/12 07:14:15;;;;;;;21.17;8.32;;;;;;;-3.66;100.00;103070.19;4967596;28;20068;-73
2024/01/12 07:16:42;;;;;;;20.73;8.45;;;;;;;-3.63;100.00;103067.31;4967058;28;21135;-74
2024/01/12 07:19:07;;;;;;;24.13;8.90;;;;;;;-3.61;100.00;103054.91;4982661;28;20686;-73
2024/01/12 07:21:34;;;;;;;19.13;8.63;;;;;;;-3.59;100.00;103050.41;4985070;28;20057;-73
2024/01/12 07:24:01;;;;;;;18.33;7.75;;;;;;;-3.55;100.00;103063.25;4985766;28;20042;-75
2024/01/12 07:26:26;;;;;;;21.38;7.72;;;;;;;-3.52;100.00;103068.25;4985618;28;20484;-75
2024/01/12 07:28:53;;;;;;;17.73;7.60;;;;;;;-3.51;100.00;103062.06;4975437;28;20054;-74
2024/01/12 07:31:19;;;;;;;18.80;7.85;;;;;;;-3.49;100.00;103047.06;4985671;28;20093;-74
2024/01/12 07:33:48;;;;;;;18.50;7.53;;;;;;;-3.48;100.00;103044.31;4983439;28;20030;-73
2024/01/12 07:36:21;;;;;;;17.52;7.45;;;;;;;-3.49;100.00;103047.88;4986968;28;20026;-75
2024/01/12 07:38:50;;;;;;;15.48;7.00;;;;;;;-3.48;100.00;103043.47;4983871;28;20430;-72
2024/01/12 07:41:21;;;;;;;16.75;6.90;;;;;;;-3.45;100.00;103038.84;4986030;28;20108;-74
2024/01/12 07:43:50;;;;;;;18.70;7.95;;;;;;;-3.42;100.00;103037.75;4950733;28;20046;-75
2024/01/12 07:46:19;;;;;;;18.25;7.43;;;;;;;-3.42;100.00;103022.88;4982999;28;20029;-74
2024/01/12 07:48:57;;;;;;;19.17;7.65;;;;;;;-3.39;100.00;103016.53;4981788;28;20038;-74
2024/01/12 07:51:23;;;;;;;20.92;8.05;;;;;;;-3.35;100.00;103025.84;4984626;28;20519;-73
2024/01/12 07:53:58;;;;;;;;;;;;;;;-3.34;100.00;103020.47;4956748;28;20101;-74
2024/01/12 07:56:45;;;;;;;21.60;8.15;;;;;;;-3.30;100.00;103005.34;4979618;28;20558;-74
2024/01/12 07:59:13;;;;;;;28.25;9.85;;;;;;;-3.31;100.00;102998.44;4977492;28;20081;-73
2024/01/12 08:01:52;;;;;;;35.53;11.32;;;;;;;-3.28;100.00;102992.13;4995940;28;20042;-74
2024/01/12 08:04:24;;;;;;;38.60;11.10;;;;;;;-3.25;100.00;102981.38;4987072;28;20042;-74
2024/01/12 08:06:49;;;;;;;34.65;11.82;;;;;;;-3.23;100.00;102975.06;5004480;28;20046;-72
2024/01/12 08:09:15;;;;;;;29.58;10.10;;;;;;;-3.22;100.00;102966.25;4992059;28;20076;-75
2024/01/12 08:11:40;;;;;;;27.00;10.10;;;;;;;-3.19;100.00;102960.75;4972398;28;20045;-76
2024/01/12 08:14:07;;;;;;;26.75;9.18;;;;;;;-3.17;100.00;102961.47;4990867;28;20034;-74
2024/01/12 08:16:35;;;;;;;30.10;9.57;;;;;;;-3.14;100.00;102944.66;4992144;28;20503;-74
2024/01/12 08:19:02;;;;;;;23.25;9.73;;;;;;;-3.11;100.00;102958.34;4995029;28;20031;-75
2024/01/12 08:21:28;;;;;;;25.88;9.45;;;;;;;-3.06;100.00;102961.41;4978713;28;20046;-74
2024/01/12 08:24:12;;;;;;;25.48;9.55;;;;;;;-3.03;100.00;102960.34;4992148;28;20054;-74
2024/01/12 08:26:57;;;;;;;22.23;9.27;;;;;;;-2.99;100.00;102955.66;4994986;28;20033;-75
2024/01/12 08:29:22;;;;;;;23.27;9.60;;;;;;;-2.99;100.00;102947.81;4994155;28;20129;-75
2024/01/12 08:31:51;;;;;;;22.98;8.93;;;;;;;-2.96;100.00;102955.44;4954727;28;20034;-75
2024/01/12 08:34:18;;;;;;;16.88;7.97;;;;;;;-2.93;100.00;102949.91;4987032;28;20042;-75
2024/01/12 08:36:44;;;;;;;18.70;8.80;;;;;;;-2.91;100.00;102950.63;4987654;28;20065;-74
2024/01/12 08:39:29;;;;;;;19.40;8.30;;;;;;;-2.86;100.00;102941.41;4990212;28;20053;-74
2024/01/12 08:41:55;;;;;;;23.33;9.25;;;;;;;-2.82;100.00;102947.25;4990122;28;20034;-76
2024/01/12 08:44:22;;;;;;;19.58;8.60;;;;;;;-2.78;100.00;102938.16;4991858;28;20125;-74
2024/01/12 08:46:47;;;;;;;21.30;8.77;;;;;;;-2.75;100.00;102948.41;4984409;28;20058;-77
2024/01/12 08:49:13;;;;;;;21.38;9.35;;;;;;;-2.73;100.00;102941.22;4983445;28;20038;-75
2024/01/12 08:51:39;;;;;;;19.70;8.65;;;;;;;-2.67;100.00;102939.88;4983830;28;20563;-75
2024/01/12 08:54:04;;;;;;;21.60;8.68;;;;;;;-2.63;100.00;102931.63;4985050;28;20030;-75
2024/01/12 08:56:31;;;;;;;34.72;13.05;;;;;;;-2.62;100.00;102938.53;4990241;28;20399;-75
2024/01/12 08:58:57;;;;;;;33.75;10.35;;;;;;;-2.61;100.00;102921.84;4986923;28;20072;-74
2024/01/12 09:01:24;;;;;;;26.55;10.32;;;;;;;-2.57;100.00;102925.06;4982906;28;20053;-75
2024/01/12 09:03:50;;;;;;;24.65;8.68;;;;;;;-2.50;100.00;102921.78;4989619;28;20034;-74
2024/01/12 09:06:15;;;;;;;24.10;8.52;;;;;;;-2.44;100.00;102924.81;4989395;28;20500;-74
2024/01/12 09:08:41;;;;;;;20.38;8.52;;;;;;;-2.40;100.00;102928.84;4988445;28;20048;-74
2024/01/12 09:11:07;;;;;;;25.65;9.02;;;;;;;-2.36;100.00;102909.28;4987751;28;20059;-74
2024/01/12 09:13:34;;;;;;;48.60;21.92;;;;;;;-2.28;100.00;102909.44;4985305;28;20066;-74
2024/01/12 09:15:59;;;;;;;20.98;8.80;;;;;;;-2.21;100.00;102921.06;4962672;28;20100;-75
2024/01/12 09:18:26;;;;;;;36.42;9.63;;;;;;;-2.15;100.00;102925.78;4985137;28;20543;-75
2024/01/12 09:20:52;;;;;;;32.75;11.60;;;;;;;-2.13;100.00;102913.34;4987380;28;20030;-75
2024/01/12 09:23:19;;;;;;;29.88;13.93;;;;;;;-2.10;100.00;102926.25;4984819;28;20030;-75
2024/01/12 09:25:44;;;;;;;27.95;10.48;;;;;;;-2.06;100.00;102925.00;4972232;28;20057;-75
2024/01/12 09:28:09;;;;;;;43.03;15.40;;;;;;;-1.99;100.00;102918.25;4987336;28;20165;-76
2024/01/12 09:30:35;;;;;;;35.63;13.55;;;;;;;-1.94;100.00;102897.66;4977617;28;20038;-76
2024/01/12 09:33:01;;;;;;;23.92;8.85;;;;;;;-1.87;100.00;102907.63;4980447;28;20026;-75
2024/01/12 09:35:26;;;;;;;19.42;8.13;;;;;;;-1.82;100.00;102910.69;4972269;28;20135;-75
2024/01/12 09:37:52;;;;;;;33.97;10.27;;;;;;;-1.84;100.00;102905.56;4967305;28;20038;-76
2024/01/12 09:40:19;;;;;;;29.48;8.82;;;;;;;-1.80;100.00;102908.75;4990931;28;20038;-75
2024/01/12 09:42:48;;;;;;;26.17;9.52;;;;;;;-1.77;100.00;102908.47;4991836;28;20085;-76
2024/01/12 09:45:14;;;;;;;26.17;8.25;;;;;;;-1.69;100.00;102916.53;4993884;28;20499;-75
2024/01/12 09:47:42;;;;;;;28.88;9.90;;;;;;;-1.64;100.00;102914.31;4994235;28;20046;-75
2024/01/12 09:50:10;;;;;;;23.10;7.80;;;;;;;-1.56;100.00;102924.13;4998134;28;20032;-75
2024/01/12 09:52:36;;;;;;;22.02;8.40;;;;;;;-1.49;100.00;102927.88;4993112;28;20030;-75
2024/01/12 09:55:02;;;;;;;19.98;7.18;;;;;;;-1.45;100.00;102930.09;4993819;28;20118;-77
2024/01/12 09:57:28;;;;;;;21.63;7.65;;;;;;;-1.38;100.00;102936.47;4966549;28;20145;-76
2024/01/12 09:59:55;;;;;;;21.20;8.13;;;;;;;-1.30;100.00;102929.69;4988113;28;20401;-76
2024/01/12 10:02:21;;;;;;;22.13;7.55;;;;;;;-1.28;100.00;102925.97;4971016;28;20035;-76
2024/01/12 10:04:46;;;;;;;22.45;8.55;;;;;;;-1.26;100.00;102924.03;4988626;28;20045;-74
2024/01/12 10:07:12;;;;;;;27.05;10.27;;;;;;;-1.22;100.00;102930.69;4954236;28;20057;-75
2024/01/12 10:09:37;;;;;;;21.35;8.18;;;;;;;-1.17;100.00;102932.88;4989766;28;20046;-76
2024/01/12 10:12:03;;;;;;;18.13;6.97;;;;;;;-1.14;100.00;102932.63;4982002;28;20046;-75
2024/01/12 10:14:29;;;;;;;21.98;8.80;;;;;;;-1.07;100.00;102925.84;4992185;28;20060;-75
2024/01/12 10:16:56;;;;;;;21.40;8.73;;;;;;;-1.04;100.00;102922.09;4955196;28;20575;-75
2024/01/12 10:19:22;;;;;;;20.10;8.20;;;;;;;-1.04;100.00;102919.47;4984002;28;20035;-77
2024/01/12 10:21:48;;;;;;;23.58;8.43;;;;;;;-1.03;100.00;102914.06;4972314;28;20041;-76
2024/01/12 10:24:19;;;;;;;24.50;8.10;;;;;;;-1.05;100.00;102910.75;4970622;28;20118;-79
2024/01/12 10:26:50;;;;;;;24.00;9.20;;;;;;;-1.04;100.00;102908.94;4968056;28;20038;-80
2024/01/12 10:29:17;;;;;;;22.40;8.63;;;;;;;-1.01;100.00;102912.13;4987179;28;20094;-78
2024/01/12 10:31:44;;;;;;;18.83;7.50;;;;;;;-0.95;100.00;102906.31;4994307;28;20523;-80
2024/01/12 10:34:12;;;;;;;22.95;8.73;;;;;;;-0.94;100.00;102892.19;4972955;28;20132;-79
2024/01/12 10:36:39;;;;;;;24.52;8.18;;;;;;;-0.96;100.00;102888.84;4977565;28;20064;-78
2024/01/12 10:39:08;;;;;;;31.42;12.75;;;;;;;-0.87;100.00;102877.50;4989895;28;20038;-79
2024/01/12 10:41:34;;;;;;;30.48;11.63;;;;;;;-0.85;100.00;102867.66;4974613;28;20039;-82
2024/01/12 10:44:04;;;;;;;26.25;10.48;;;;;;;-0.83;100.00;102870.97;4982991;28;20905;-80
2024/01/12 10:46:47;;;;;;;33.97;12.23;;;;;;;-0.76;100.00;102851.97;4980695;28;20041;-82
2024/01/12 10:49:18;;;;;;;26.23;9.77;;;;;;;-0.71;100.00;102858.47;4967242;28;20084;-80
2024/01/12 10:52:00;;;;;;;25.55;10.13;;;;;;;-0.65;100.00;102860.53;4987369;28;20089;-81
2024/01/12 10:54:29;;;;;;;28.27;8.60;;;;;;;-0.61;100.00;102850.53;5003485;28;20510;-81
2024/01/12 10:56:55;;;;;;;19.42;6.97;;;;;;;-0.59;100.00;102844.19;4989006;28;20044;-84
2024/01/12 10:59:22;;;;;;;19.00;8.15;;;;;;;-0.54;100.00;102846.38;4984063;28;20749;-83
2024/01/12 11:01:48;;;;;;;;;;;;;;;-0.51;100.00;102846.06;5004459;28;20125;-82
2024/01/12 11:04:15;;;;;;;22.38;8.05;;;;;;;-0.50;100.00;102845.09;4972340;28;19925;-80